General Aviation Weather

Text Reports

Enter one or more of the following location identifiers separated by a space:

Zip Code, Four-Character ICAO or Three-Character IATA airport codes.

METAR - Aviation Routine Weather Report
KCQB - Chandler, Oklahoma
Updated at 10:35 PM GMT on August 01, 2014 (5:35 PM CDT):
METAR KCQB 012235Z AUTO 12003KT 10SM CLR 28/20 A3006 RMK AO2
TAF - Terminal Area Forecast
KCQB - Chandler, Oklahoma
Updated at 10:35 PM GMT on August 01, 2014 (5:35 PM CDT):
No TAF is currently available for this location.
Decoded:
No decoded TAF is available.
PIREP - Pilot Weather Report
KCQB - Chandler, Oklahoma
Updated at 10:35 PM GMT on August 01, 2014 (5:35 PM CDT):
No PIREP is currently available for this location.
AIRMET - Airmens Meteorological Information
KCQB - Chandler, Oklahoma
Updated at 10:35 PM GMT on August 01, 2014 (5:35 PM CDT):
No AIRMET is currently available for this location.
SIGMET - Significant Meteorological Information
KCQB - Chandler, Oklahoma
Updated at 10:35 PM GMT on August 01, 2014 (5:35 PM CDT):
No SIGMET is currently available for this location.
NOTAM - Notice to Airmen
KCQB - Chandler, Oklahoma
Updated at 10:35 PM GMT on August 01, 2014 (5:35 PM CDT):
No NOTAM is currently available for this location.
Forecast Area
KCQB - Chandler, Oklahoma
Updated at 10:35 PM GMT on August 01, 2014 (5:35 PM CDT):
No NOTAM is currently available for this location.
Aviation Weather Maps